Time;durP1;ratioP1;P1;durP2;ratioP2;P2;SDS_P1;SDS_P2;PMS_P1;PMS_P2;Temp;Humidity;BMP_temperature;BMP_pressure;BME280_temperature;BME280_humidity;BME280_pressure;Samples;Min_cycle;Max_cycle;Signal;HPM_P1;HPM_P2
2022/04/04 00:02:19;;;;;;;7.95;4.88;;;;;;;3.56;49.97;94991.06;5123036;27;20424;-71
2022/04/04 00:04:45;;;;;;;5.90;4.50;;;;;;;3.51;50.09;94985.34;5116605;27;20076;-70
2022/04/04 00:07:10;;;;;;;5.75;4.22;;;;;;;3.57;50.04;94996.13;5118247;27;20440;-71
2022/04/04 00:09:36;;;;;;;5.72;4.32;;;;;;;3.64;49.98;94994.06;5110408;28;20031;-70
2022/04/04 00:12:01;;;;;;;5.25;3.85;;;;;;;3.65;49.50;94994.88;5132886;27;20027;-70
2022/04/04 00:14:27;;;;;;;5.10;4.15;;;;;;;3.54;49.70;94980.88;5119510;27;20024;-71
2022/04/04 00:16:53;;;;;;;4.45;3.55;;;;;;;3.60;49.66;94990.00;5130607;27;20027;-70
2022/04/04 00:19:18;;;;;;;8.10;4.15;;;;;;;3.56;49.33;94991.06;5100668;27;20108;-71
2022/04/04 00:21:44;;;;;;;5.78;3.88;;;;;;;3.61;49.59;94993.41;5104731;27;20561;-70
2022/04/04 00:24:10;;;;;;;5.00;4.07;;;;;;;3.61;50.62;94998.53;5132356;27;20031;-71
2022/04/04 00:26:35;;;;;;;6.68;3.75;;;;;;;3.58;49.27;94997.78;5114421;27;20118;-70
2022/04/04 00:29:01;;;;;;;5.40;4.18;;;;;;;3.63;49.74;95007.00;5114501;27;20427;-70
2022/04/04 00:31:26;;;;;;;5.47;4.28;;;;;;;3.60;50.32;95002.84;5132054;27;20035;-70
2022/04/04 00:33:52;;;;;;;5.90;3.88;;;;;;;3.58;50.13;95002.94;5128165;27;20664;-70
2022/04/04 00:36:17;;;;;;;6.20;4.05;;;;;;;3.59;49.94;95001.19;5101251;28;20053;-72
2022/04/04 00:38:43;;;;;;;4.90;3.88;;;;;;;3.60;49.16;95002.03;5091410;28;20033;-70
2022/04/04 00:41:10;;;;;;;5.82;4.30;;;;;;;3.61;50.28;95006.25;5101260;28;20046;-71
2022/04/04 00:43:36;;;;;;;5.00;4.07;;;;;;;3.57;50.00;95001.28;5097745;28;20063;-70
2022/04/04 00:46:01;;;;;;;5.07;4.22;;;;;;;3.49;50.13;95000.84;5092633;28;20063;-70
2022/04/04 00:48:27;;;;;;;5.45;4.30;;;;;;;3.54;50.09;95004.00;5083411;28;20262;-71
2022/04/04 00:50:52;;;;;;;5.45;4.30;;;;;;;3.52;50.87;95005.00;5099874;28;20048;-70
2022/04/04 00:53:18;;;;;;;5.80;4.35;;;;;;;3.48;50.73;95004.34;5107185;28;20471;-70
2022/04/04 00:55:43;;;;;;;4.65;4.05;;;;;;;3.46;51.03;95006.16;5095628;28;20555;-70
2022/04/04 00:58:09;;;;;;;6.57;4.30;;;;;;;3.42;51.10;94996.94;5112208;28;20462;-71
2022/04/04 01:00:34;;;;;;;5.32;4.03;;;;;;;3.48;51.01;95004.34;5076477;28;20096;-70
2022/04/04 01:03:00;;;;;;;5.97;3.92;;;;;;;3.47;51.96;95002.66;5110224;28;20398;-70
2022/04/04 01:05:26;;;;;;;6.50;4.13;;;;;;;3.48;51.99;95001.75;5111162;27;20393;-70
2022/04/04 01:07:51;;;;;;;4.97;4.13;;;;;;;3.39;50.86;95002.22;5093868;28;20127;-71
2022/04/04 01:10:17;;;;;;;5.93;4.53;;;;;;;3.23;51.11;94979.09;5093293;28;20036;-71
2022/04/04 01:12:52;;;;;;;5.32;4.05;;;;;;;3.22;50.84;94997.13;5093987;28;20036;-70
2022/04/04 01:15:18;;;;;;;5.35;4.22;;;;;;;3.26;51.69;95003.75;5086454;28;20099;-71
2022/04/04 01:17:45;;;;;;;6.00;5.07;;;;;;;3.28;53.17;94996.81;5098688;28;20035;-71
2022/04/04 01:20:11;;;;;;;5.82;4.43;;;;;;;3.25;53.51;95002.09;5104465;28;20036;-71
2022/04/04 01:22:36;;;;;;;5.15;4.20;;;;;;;3.11;52.34;94990.78;5078703;28;20114;-70
2022/04/04 01:25:05;;;;;;;6.20;4.60;;;;;;;3.12;52.70;94997.59;5091345;28;20474;-70
2022/04/04 01:27:30;;;;;;;5.72;4.03;;;;;;;3.13;52.99;94995.88;5091291;28;20032;-70
2022/04/04 01:29:56;;;;;;;6.80;4.40;;;;;;;3.04;53.97;94991.22;5098807;28;20035;-70
2022/04/04 01:32:21;;;;;;;6.10;3.80;;;;;;;2.99;52.84;94990.59;5075291;28;20051;-71
2022/04/04 01:34:47;;;;;;;6.35;3.88;;;;;;;2.97;52.96;94990.66;5091252;28;20024;-70
2022/04/04 01:37:12;;;;;;;6.40;4.35;;;;;;;2.93;52.65;94999.44;5108202;27;20101;-70
2022/04/04 01:39:37;;;;;;;6.45;4.63;;;;;;;2.87;52.59;94994.59;5111556;28;20504;-70
2022/04/04 01:42:04;;;;;;;4.93;4.15;;;;;;;2.82;52.63;94986.31;5113523;27;20070;-70
2022/04/04 01:44:29;;;;;;;6.72;4.85;;;;;;;2.73;52.08;94985.03;5108456;27;20027;-70
2022/04/04 01:46:54;;;;;;;7.07;4.60;;;;;;;2.78;52.82;94990.75;5097193;27;20523;-70
2022/04/04 01:49:20;;;;;;;6.93;4.57;;;;;;;2.64;53.79;94981.16;5132846;27;20022;-71
2022/04/04 01:51:45;;;;;;;7.65;5.20;;;;;;;2.61;53.38;94983.88;5119722;27;20050;-70
2022/04/04 01:54:11;;;;;;;6.57;4.28;;;;;;;2.74;53.05;95002.06;5110887;28;20030;-71
2022/04/04 01:56:36;;;;;;;6.40;4.45;;;;;;;2.76;53.03;95002.84;5128075;27;20035;-70
2022/04/04 01:59:02;;;;;;;6.25;4.75;;;;;;;2.76;53.18;95007.13;5112036;27;20035;-71
2022/04/04 02:01:27;;;;;;;6.30;4.85;;;;;;;2.70;54.28;95003.13;5107460;28;20054;-71
2022/04/04 02:03:54;;;;;;;6.63;4.80;;;;;;;2.69;54.07;95007.41;5107675;28;20019;-71
2022/04/04 02:06:20;;;;;;;7.75;5.15;;;;;;;2.60;53.72;95004.50;5100765;27;20019;-71
2022/04/04 02:08:45;;;;;;;8.07;5.60;;;;;;;2.53;54.97;95003.94;5112530;27;20496;-70
2022/04/04 02:11:12;;;;;;;6.45;4.60;;;;;;;2.55;53.77;95004.69;5102585;28;20103;-71
2022/04/04 02:13:38;;;;;;;6.65;4.78;;;;;;;2.37;55.18;94973.09;5112535;27;20493;-71
2022/04/04 02:16:04;;;;;;;7.05;4.90;;;;;;;2.41;54.94;94994.28;5128786;27;20206;-71
2022/04/04 02:18:30;;;;;;;7.63;4.93;;;;;;;2.29;55.71;94985.44;5129340;27;20039;-71
2022/04/04 02:20:55;;;;;;;7.40;5.30;;;;;;;2.33;55.60;94991.25;5108454;28;20028;-71
2022/04/04 02:23:21;;;;;;;8.30;5.60;;;;;;;2.26;56.02;94982.19;5115964;27;20031;-71
2022/04/04 02:25:47;;;;;;;10.15;6.28;;;;;;;2.19;55.67;94987.59;5095197;27;20030;-71
2022/04/04 02:28:13;;;;;;;10.40;6.25;;;;;;;2.19;56.49;94989.34;5104988;28;20043;-71
2022/04/04 02:30:42;;;;;;;8.52;5.72;;;;;;;2.18;54.75;95001.34;5100640;28;20035;-71
2022/04/04 02:33:07;;;;;;;8.13;5.25;;;;;;;2.17;56.97;94986.00;5123768;27;20031;-71
2022/04/04 02:35:33;;;;;;;8.63;5.53;;;;;;;2.11;56.47;94987.13;5115790;27;20024;-71
2022/04/04 02:37:59;;;;;;;7.47;5.22;;;;;;;2.05;56.54;94977.19;5126855;27;20063;-71
2022/04/04 02:40:24;;;;;;;7.00;4.90;;;;;;;2.08;57.17;94986.47;5113168;27;20124;-71
2022/04/04 02:42:50;;;;;;;9.00;5.50;;;;;;;2.13;56.38;94987.06;5111467;28;20035;-71
2022/04/04 02:45:15;;;;;;;6.97;4.82;;;;;;;2.04;57.41;94985.78;5111159;27;20193;-71
2022/04/04 02:47:42;;;;;;;6.72;4.97;;;;;;;2.08;56.27;94981.31;5120659;27;20031;-71
2022/04/04 02:50:08;;;;;;;6.78;4.88;;;;;;;2.10;56.66;94970.09;5109499;27;20034;-71
2022/04/04 02:52:33;;;;;;;7.10;4.90;;;;;;;2.10;57.39;94974.41;5130136;27;20031;-71
2022/04/04 02:54:58;;;;;;;7.70;5.03;;;;;;;2.03;57.33;94978.97;5113720;27;20045;-71
2022/04/04 02:57:24;;;;;;;6.78;4.90;;;;;;;1.99;56.43;94982.59;5115463;27;20031;-71
2022/04/04 02:59:49;;;;;;;6.53;4.78;;;;;;;1.93;56.93;94985.44;5088710;28;20097;-71
2022/04/04 03:02:15;;;;;;;7.30;5.05;;;;;;;1.90;58.23;94990.72;5111077;28;20032;-71
2022/04/04 03:04:42;;;;;;;8.15;4.82;;;;;;;1.85;58.29;94985.78;5126362;28;20031;-70
2022/04/04 03:07:08;;;;;;;6.10;4.93;;;;;;;1.78;59.14;94975.00;5115328;28;20023;-70
2022/04/04 03:09:33;;;;;;;8.65;5.57;;;;;;;1.78;58.59;94975.00;5111292;27;20036;-71
2022/04/04 03:12:01;;;;;;;5.85;4.60;;;;;;;1.74;60.08;94978.59;5105549;28;20467;-70
2022/04/04 03:14:26;;;;;;;6.40;4.82;;;;;;;1.72;59.89;94982.94;5130857;27;20027;-71
2022/04/04 03:16:52;;;;;;;8.45;5.47;;;;;;;1.72;59.14;94977.00;5119014;27;20070;-71
2022/04/04 03:19:17;;;;;;;7.05;5.32;;;;;;;1.59;60.52;94979.31;5116143;27;20024;-71
2022/04/04 03:21:44;;;;;;;7.57;5.38;;;;;;;1.53;59.30;94980.41;5128783;27;20016;-71
2022/04/04 03:24:10;;;;;;;8.02;5.13;;;;;;;1.55;61.14;94988.00;5121682;27;20023;-71
2022/04/04 03:26:35;;;;;;;7.13;5.15;;;;;;;1.54;60.47;94988.91;5111577;28;20118;-71
2022/04/04 03:29:01;;;;;;;7.93;5.80;;;;;;;1.51;59.59;94987.31;5116863;27;20034;-70
2022/04/04 03:31:26;;;;;;;8.90;6.43;;;;;;;1.47;60.29;94988.34;5138040;27;20060;-71
2022/04/04 03:33:52;;;;;;;9.70;7.10;;;;;;;1.47;60.24;94992.63;5155192;27;20052;-71
2022/04/04 03:36:17;;;;;;;9.95;7.25;;;;;;;1.41;61.23;94990.34;5154860;27;20057;-71
2022/04/04 03:38:43;;;;;;;9.40;7.50;;;;;;;1.42;61.29;95003.09;5155031;27;20503;-70
2022/04/04 03:41:09;;;;;;;8.52;6.72;;;;;;;1.40;61.47;95010.00;5154494;27;20039;-71
2022/04/04 03:43:35;;;;;;;8.68;6.28;;;;;;;1.41;61.81;95011.66;5135377;27;20485;-71
2022/04/04 03:46:00;;;;;;;9.30;6.72;;;;;;;1.40;61.36;95015.13;5134276;27;20045;-71
2022/04/04 03:48:26;;;;;;;9.40;6.72;;;;;;;1.41;61.14;95019.34;5128550;27;20072;-72
2022/04/04 03:50:54;;;;;;;9.23;6.65;;;;;;;1.34;61.51;95002.59;5094992;27;20092;-71
2022/04/04 03:53:21;;;;;;;11.57;7.35;;;;;;;1.49;59.60;95013.91;5122148;27;20023;-71
2022/04/04 03:55:47;;;;;;;10.15;6.78;;;;;;;1.58;59.23;95028.84;5107635;27;20408;-72
2022/04/04 03:58:12;;;;;;;8.90;6.85;;;;;;;1.63;59.46;95026.09;5126679;27;20027;-71
2022/04/04 04:00:38;;;;;;;8.95;6.45;;;;;;;1.67;59.80;95027.59;5107028;28;20072;-71
2022/04/04 04:03:04;;;;;;;10.73;6.70;;;;;;;1.69;60.76;95039.44;5117604;27;20020;-71
2022/04/04 04:05:29;;;;;;;9.50;7.32;;;;;;;1.71;61.30;95034.25;5102637;27;20050;-71
2022/04/04 04:07:55;;;;;;;10.05;7.35;;;;;;;1.73;60.17;95037.59;5133706;27;20023;-70
2022/04/04 04:10:21;;;;;;;12.82;8.30;;;;;;;1.81;60.28;95039.78;5130051;27;20031;-71
2022/04/04 04:12:46;;;;;;;11.00;7.72;;;;;;;1.83;60.40;95043.13;5135735;27;20031;-70
2022/04/04 04:15:17;;;;;;;13.57;8.80;;;;;;;1.87;60.46;95048.06;5120440;27;20050;-71
2022/04/04 04:17:43;;;;;;;11.43;7.85;;;;;;;1.93;60.59;95052.91;5098310;27;20299;-71
2022/04/04 04:20:29;;;;;;;10.57;7.32;;;;;;;1.93;60.06;95057.19;5107191;27;20530;-71
2022/04/04 04:23:04;;;;;;;10.57;7.53;;;;;;;1.95;59.46;95065.63;5101999;27;20119;-71
2022/04/04 04:25:30;;;;;;;10.82;7.82;;;;;;;1.95;60.15;95063.06;5131575;27;20034;-71
2022/04/04 04:28:01;;;;;;;10.07;7.85;;;;;;;1.93;59.85;95067.44;5132102;27;20490;-71
2022/04/04 04:30:27;;;;;;;11.25;8.43;;;;;;;2.04;59.80;95061.84;5113203;27;20122;-71
2022/04/04 04:32:55;;;;;;;9.13;7.30;;;;;;;2.12;59.36;95067.44;5112194;27;20020;-71
2022/04/04 04:35:21;;;;;;;10.15;7.82;;;;;;;2.18;58.43;95067.16;5129646;27;20473;-71
2022/04/04 04:37:46;;;;;;;12.07;8.07;;;;;;;2.18;58.41;95073.09;5118534;27;20062;-71
2022/04/04 04:40:12;;;;;;;13.05;8.50;;;;;;;2.24;57.74;95084.81;5106618;27;20454;-71
2022/04/04 04:42:38;;;;;;;14.10;8.45;;;;;;;2.26;57.24;95077.88;5127812;27;20039;-71
2022/04/04 04:45:05;;;;;;;13.80;9.55;;;;;;;2.28;55.32;95082.94;5111088;27;20057;-71
2022/04/04 04:47:30;;;;;;;10.98;8.43;;;;;;;2.32;54.32;95081.91;5105464;27;20028;-71
2022/04/04 04:49:56;;;;;;;11.65;8.27;;;;;;;2.27;55.51;95081.28;5129526;27;20038;-71
2022/04/04 04:52:21;;;;;;;12.52;8.50;;;;;;;2.33;57.82;95084.38;5128202;27;20038;-71
2022/04/04 04:54:47;;;;;;;10.07;7.95;;;;;;;2.42;55.58;95088.25;5133044;27;20023;-71
2022/04/04 04:57:12;;;;;;;12.13;8.55;;;;;;;2.05;54.25;95023.31;5129139;27;20031;-71
2022/04/04 04:59:37;;;;;;;12.43;8.55;;;;;;;2.50;53.48;95087.91;5130204;27;20503;-71
2022/04/04 05:02:03;;;;;;;14.30;8.52;;;;;;;2.51;53.79;95085.28;5124671;27;20042;-71
2022/04/04 05:04:29;;;;;;;11.43;9.05;;;;;;;2.54;55.47;95092.81;5132594;27;20499;-71
2022/04/04 05:06:54;;;;;;;12.00;9.18;;;;;;;2.54;54.40;95085.13;5126614;27;20429;-71
2022/04/04 05:09:20;;;;;;;13.18;9.10;;;;;;;2.51;54.14;95072.44;5129587;27;20023;-70
2022/04/04 05:11:45;;;;;;;12.65;9.48;;;;;;;2.71;55.91;95078.38;5090725;28;20647;-71
2022/04/04 05:14:15;;;;;;;14.65;10.70;;;;;;;3.16;55.54;95100.13;5105146;28;20050;-71
2022/04/04 05:16:44;;;;;;;15.75;10.77;;;;;;;3.47;53.45;95100.25;5114242;27;20031;-71
2022/04/04 05:19:11;;;;;;;17.38;11.88;;;;;;;3.34;53.01;95094.06;5125028;27;20019;-71
2022/04/04 05:21:37;;;;;;;13.88;10.15;;;;;;;3.40;51.75;95083.53;5096841;27;20386;-71
2022/04/04 05:24:04;;;;;;;14.85;10.70;;;;;;;3.50;51.30;95101.84;5134845;27;20559;-71
2022/04/04 05:26:29;;;;;;;16.65;11.23;;;;;;;3.53;52.90;95107.66;5129719;27;20027;-69
2022/04/04 05:28:55;;;;;;;13.85;9.73;;;;;;;3.50;50.23;95115.50;5134401;27;20027;-71
2022/04/04 05:31:21;;;;;;;15.27;10.40;;;;;;;3.49;51.10;95107.91;5123254;27;20505;-69
2022/04/04 05:33:46;;;;;;;15.35;9.82;;;;;;;3.52;51.25;95107.75;5126542;27;20524;-70
2022/04/04 05:36:11;;;;;;;16.63;13.80;;;;;;;3.62;51.62;95119.19;5123070;27;20051;-71
2022/04/04 05:38:37;;;;;;;13.27;10.27;;;;;;;3.66;51.34;95117.31;5123967;27;20405;-73
2022/04/04 05:41:02;;;;;;;13.93;10.07;;;;;;;3.75;51.23;95124.56;5129787;27;20032;-73
2022/04/04 05:43:28;;;;;;;14.18;9.75;;;;;;;3.74;51.51;95122.91;5105039;27;20508;-73
2022/04/04 05:45:54;;;;;;;13.57;9.25;;;;;;;3.74;50.77;95128.88;5090702;28;20039;-73
2022/04/04 05:48:19;;;;;;;12.98;9.60;;;;;;;3.75;50.94;95127.94;5124110;27;20020;-71
2022/04/04 05:50:45;;;;;;;13.00;9.93;;;;;;;3.81;51.23;95134.53;5126527;27;20459;-71
2022/04/04 05:53:10;;;;;;;11.43;9.27;;;;;;;3.75;51.24;95134.84;5109739;27;20054;-71
2022/04/04 05:55:36;;;;;;;14.02;10.63;;;;;;;3.79;51.00;95139.75;5123422;27;20477;-71
2022/04/04 05:58:01;;;;;;;13.80;9.95;;;;;;;3.80;50.42;95143.16;5095424;27;20417;-71
2022/04/04 06:00:27;;;;;;;14.27;10.43;;;;;;;3.87;51.55;95151.38;5122775;27;20031;-69
2022/04/04 06:02:52;;;;;;;11.95;9.80;;;;;;;3.94;50.60;95140.69;5104453;27;20069;-71
2022/04/04 06:05:17;;;;;;;14.45;9.27;;;;;;;4.03;51.16;95147.94;5129065;27;20250;-71
2022/04/04 06:07:43;;;;;;;12.70;10.10;;;;;;;4.09;50.44;95154.50;5124297;27;20027;-71
2022/04/04 06:10:09;;;;;;;13.68;10.05;;;;;;;4.19;49.85;95144.56;5123327;27;20035;-71
2022/04/04 06:12:38;;;;;;;18.42;10.85;;;;;;;4.28;49.62;95140.69;5118504;27;20047;-71
2022/04/04 06:15:04;;;;;;;12.77;9.48;;;;;;;4.33;50.44;95147.25;5109012;27;20042;-71
2022/04/04 06:17:29;;;;;;;16.23;10.93;;;;;;;4.39;50.02;95136.63;5122806;27;20039;-71
2022/04/04 06:19:55;;;;;;;14.77;10.18;;;;;;;4.45;49.80;95131.13;5117579;27;20472;-71
2022/04/04 06:22:22;;;;;;;14.85;10.27;;;;;;;4.45;49.70;95118.28;5103146;27;20031;-71
2022/04/04 06:24:48;;;;;;;14.85;10.15;;;;;;;4.60;49.80;95129.50;5101325;28;20051;-71
2022/04/04 06:27:15;;;;;;;13.65;10.45;;;;;;;4.73;49.67;95124.50;5102985;28;20023;-71
2022/04/04 06:29:41;;;;;;;12.68;9.65;;;;;;;4.85;49.56;95118.69;5109972;27;20416;-71
2022/04/04 06:32:07;;;;;;;13.25;9.63;;;;;;;4.99;49.09;95111.94;5111416;27;20035;-71
2022/04/04 06:34:32;;;;;;;16.65;10.57;;;;;;;5.00;48.03;95127.28;5124151;27;20067;-71
2022/04/04 06:36:58;;;;;;;13.00;10.00;;;;;;;5.02;48.18;95129.81;5129856;27;20417;-71
2022/04/04 06:39:23;;;;;;;12.15;9.55;;;;;;;5.09;48.32;95105.34;5126495;27;20069;-71
2022/04/04 06:41:50;;;;;;;14.35;10.05;;;;;;;5.23;47.82;95123.41;5129701;27;20150;-72
2022/04/04 06:44:16;;;;;;;14.57;10.45;;;;;;;5.27;47.86;95136.97;5125366;27;20023;-71
2022/04/04 06:46:41;;;;;;;14.43;9.65;;;;;;;5.25;47.37;95124.16;5090120;28;20027;-72
2022/04/04 06:49:07;;;;;;;13.98;10.15;;;;;;;5.34;48.50;95122.81;5113521;27;20036;-72
2022/04/04 06:51:33;;;;;;;12.05;8.88;;;;;;;5.43;47.81;95126.59;5128058;27;20067;-72
2022/04/04 06:53:59;;;;;;;12.52;9.68;;;;;;;5.51;47.26;95137.28;5110494;27;20065;-73
2022/04/04 06:56:25;;;;;;;12.30;9.90;;;;;;;5.50;46.69;95135.66;5126574;27;20076;-71
2022/04/04 06:58:52;;;;;;;13.55;10.07;;;;;;;5.50;47.01;95135.66;5127893;27;20035;-71
2022/04/04 07:01:18;;;;;;;15.15;9.75;;;;;;;5.59;46.58;95137.69;5092084;28;20030;-72
2022/04/04 07:03:43;;;;;;;11.05;8.77;;;;;;;5.64;46.03;95133.09;5132027;27;20031;-71
2022/04/04 07:06:09;;;;;;;12.27;9.23;;;;;;;5.71;45.89;95134.41;5126157;28;20023;-71
2022/04/04 07:08:35;;;;;;;11.75;9.00;;;;;;;5.59;45.83;95135.94;5127274;27;20035;-71
2022/04/04 07:11:01;;;;;;;16.30;10.38;;;;;;;5.58;47.26;95144.59;5109664;28;20042;-71
2022/04/04 07:13:27;;;;;;;11.90;9.20;;;;;;;5.70;46.36;95137.88;5132699;27;20036;-72
2022/04/04 07:15:52;;;;;;;12.48;8.68;;;;;;;5.87;45.86;95143.81;5075406;28;20031;-72
2022/04/04 07:18:18;;;;;;;11.88;8.95;;;;;;;5.98;45.59;95131.13;5126407;28;20019;-72
2022/04/04 07:20:43;;;;;;;11.73;8.52;;;;;;;5.81;45.22;95124.38;5109498;28;20035;-71
2022/04/04 07:23:09;;;;;;;11.43;9.15;;;;;;;5.92;45.75;95139.22;5109526;28;20027;-71
2022/04/04 07:25:35;;;;;;;12.25;8.95;;;;;;;5.86;45.39;95153.28;5125679;27;20023;-72
2022/04/04 07:28:01;;;;;;;11.48;9.32;;;;;;;5.88;46.04;95155.78;5126843;28;20512;-71
2022/04/04 07:30:27;;;;;;;11.35;9.15;;;;;;;5.93;46.54;95153.75;5108028;28;20027;-71
2022/04/04 07:32:52;;;;;;;12.25;9.70;;;;;;;5.91;46.57;95156.44;5128760;28;20032;-71
2022/04/04 07:35:19;;;;;;;12.45;8.90;;;;;;;5.93;46.12;95154.59;5108095;28;20030;-71
2022/04/04 07:37:45;;;;;;;13.82;9.32;;;;;;;6.10;46.88;95157.94;5128715;27;20166;-71
2022/04/04 07:40:12;;;;;;;12.52;9.30;;;;;;;6.20;46.51;95159.88;5123387;27;20088;-71
2022/04/04 07:42:38;;;;;;;11.90;9.48;;;;;;;6.17;45.15;95147.16;5112349;27;20114;-71
2022/04/04 07:45:05;;;;;;;20.10;11.05;;;;;;;6.24;45.72;95157.94;5092839;28;20023;-71
2022/04/04 07:47:30;;;;;;;15.50;9.70;;;;;;;6.34;44.33;95156.47;5111460;27;20027;-71
2022/04/04 07:49:56;;;;;;;12.15;8.85;;;;;;;6.33;45.10;95159.16;5127415;27;20073;-71
2022/04/04 07:52:22;;;;;;;12.80;8.65;;;;;;;6.32;44.18;95166.03;5106467;28;20024;-71
2022/04/04 07:54:47;;;;;;;11.88;9.52;;;;;;;6.17;45.00;95147.16;5130803;27;20023;-71
2022/04/04 07:57:12;;;;;;;15.23;10.07;;;;;;;6.07;45.00;95166.69;5129722;27;20496;-71
2022/04/04 07:59:38;;;;;;;13.88;9.85;;;;;;;6.15;46.50;95161.91;5131139;27;20035;-71
2022/04/04 08:02:03;;;;;;;11.10;9.07;;;;;;;6.25;46.25;95157.03;5111625;27;20032;-71
2022/04/04 08:04:29;;;;;;;14.00;9.85;;;;;;;6.42;46.84;95162.00;5109441;27;20028;-71
2022/04/04 08:06:55;;;;;;;14.82;10.35;;;;;;;6.62;46.74;95165.94;5104723;28;20497;-71
2022/04/04 08:09:20;;;;;;;13.63;9.93;;;;;;;6.74;45.62;95164.34;5126988;27;20031;-71
2022/04/04 08:11:46;;;;;;;13.38;9.95;;;;;;;6.88;45.78;95163.47;5130625;27;20039;-71
2022/04/04 08:14:12;;;;;;;13.25;9.05;;;;;;;6.89;44.39;95160.00;5139326;27;20468;-71
2022/04/04 08:16:37;;;;;;;17.33;9.57;;;;;;;6.86;45.82;95160.19;5132462;27;20032;-71
2022/04/04 08:19:03;;;;;;;12.07;8.85;;;;;;;6.90;44.35;95149.53;5104693;27;20504;-71
2022/04/04 08:21:29;;;;;;;10.70;8.35;;;;;;;6.99;43.66;95150.72;5130736;27;20497;-71
2022/04/04 08:23:55;;;;;;;14.07;10.07;;;;;;;6.98;45.58;95148.25;5128331;27;20454;-71
2022/04/04 08:26:20;;;;;;;12.30;9.93;;;;;;;7.15;45.62;95146.22;5119824;27;20051;-71
2022/04/04 08:28:46;;;;;;;13.50;9.80;;;;;;;7.31;45.44;95140.09;5106183;27;20035;-71
2022/04/04 08:31:11;;;;;;;14.63;10.15;;;;;;;7.36;44.06;95138.88;5095941;27;20031;-72
2022/04/04 08:33:37;;;;;;;18.45;11.30;;;;;;;7.35;44.68;95136.38;5135244;27;20027;-72
2022/04/04 08:36:06;;;;;;;15.13;10.75;;;;;;;7.40;43.98;95139.50;5130113;27;20137;-75
2022/04/04 08:38:33;;;;;;;14.02;10.63;;;;;;;7.34;43.78;95142.47;5135007;27;20034;-75
2022/04/04 08:41:02;;;;;;;13.65;10.93;;;;;;;7.28;44.21;95124.78;5131065;27;20053;-72
2022/04/04 08:43:28;;;;;;;13.40;9.90;;;;;;;7.34;43.76;95119.22;5130618;27;20394;-72
2022/04/04 08:45:53;;;;;;;13.98;10.68;;;;;;;7.22;43.68;95120.03;5133189;27;20034;-72
2022/04/04 08:48:18;;;;;;;15.20;9.95;;;;;;;7.23;44.06;95122.50;5128646;27;20031;-72
2022/04/04 08:50:44;;;;;;;12.68;10.32;;;;;;;7.14;44.51;95120.50;5108553;28;20024;-72
2022/04/04 08:53:10;;;;;;;15.70;10.30;;;;;;;7.21;45.03;95108.84;5131393;27;20101;-71
2022/04/04 08:55:35;;;;;;;13.18;10.07;;;;;;;7.30;45.18;95102.25;5109016;28;20110;-72
2022/04/04 08:58:01;;;;;;;14.32;10.85;;;;;;;7.32;46.32;95097.81;5121086;27;20470;-72
2022/04/04 09:00:27;;;;;;;13.55;10.60;;;;;;;7.48;45.06;95095.88;5126413;27;20063;-71
2022/04/04 09:03:02;;;;;;;15.90;10.77;;;;;;;7.55;44.45;95073.88;5131638;27;20076;-71
2022/04/04 09:05:29;;;;;;;13.00;10.20;;;;;;;7.73;43.92;95089.06;5112034;27;20135;-71
2022/04/04 09:08:05;;;;;;;15.07;11.40;;;;;;;7.78;42.71;95087.84;5133168;27;20026;-71
2022/04/04 09:10:36;;;;;;;15.15;11.38;;;;;;;7.80;43.48;95091.16;5092197;27;20091;-71
2022/04/04 09:13:15;;;;;;;20.27;12.10;;;;;;;7.83;42.80;95087.53;5094847;27;20492;-71
2022/04/04 09:15:59;;;;;;;16.65;11.18;;;;;;;7.86;42.64;95089.91;5115030;27;20564;-71
2022/04/04 09:18:37;;;;;;;14.93;10.73;;;;;;;7.88;44.12;95082.03;5137016;27;20034;-71
2022/04/04 09:21:33;;;;;;;14.50;11.40;;;;;;;7.95;42.87;95063.41;5130534;27;20027;-71
2022/04/04 09:24:01;;;;;;;14.55;10.95;;;;;;;7.97;45.25;95053.78;5114563;27;20131;-71
2022/04/04 09:26:38;;;;;;;14.15;11.18;;;;;;;8.15;42.69;95074.16;5130262;27;20038;-72
2022/04/04 09:29:13;;;;;;;14.90;10.23;;;;;;;8.16;42.42;95066.28;5127551;27;20052;-71
2022/04/04 09:31:59;;;;;;;14.82;10.50;;;;;;;8.19;43.08;95060.03;5130797;27;20035;-71
2022/04/04 09:34:24;;;;;;;13.90;11.20;;;;;;;8.22;42.16;95059.88;5107467;28;20114;-72
2022/04/04 09:36:50;;;;;;;13.50;10.63;;;;;;;8.23;43.36;95057.16;5129188;27;20115;-71
2022/04/04 09:39:15;;;;;;;16.00;10.45;;;;;;;8.31;42.12;95059.22;5093678;27;20114;-71
2022/04/04 09:41:41;;;;;;;12.73;9.23;;;;;;;8.13;42.15;95044.94;5131201;27;20072;-71
2022/04/04 09:44:08;;;;;;;13.38;10.25;;;;;;;7.96;42.65;95053.88;5121900;27;20044;-71
2022/04/04 09:46:41;;;;;;;14.05;10.02;;;;;;;7.77;43.60;95033.63;5128629;27;20031;-71
2022/04/04 09:49:07;;;;;;;13.02;9.95;;;;;;;7.91;44.75;95051.63;5131231;27;20023;-71
2022/04/04 09:51:40;;;;;;;12.85;10.15;;;;;;;7.93;43.48;95047.16;5126433;27;20055;-71
2022/04/04 09:54:07;;;;;;;12.63;10.20;;;;;;;7.77;42.16;95037.06;5126529;27;20130;-71
2022/04/04 09:56:32;;;;;;;13.73;10.20;;;;;;;7.81;44.24;95035.91;5128965;27;20051;-71
2022/04/04 09:59:01;;;;;;;14.35;10.27;;;;;;;7.83;43.18;95039.22;5113266;27;20035;-71
2022/04/04 10:01:28;;;;;;;14.27;9.60;;;;;;;7.98;43.10;95020.97;5111181;27;20959;-75
2022/04/04 10:03:53;;;;;;;11.85;9.50;;;;;;;8.09;42.85;95034.00;5098733;27;20035;-71
2022/04/04 10:06:19;;;;;;;12.23;9.60;;;;;;;8.09;42.28;95015.06;5111692;27;20083;-71
2022/04/04 10:08:44;;;;;;;11.43;9.90;;;;;;;7.84;41.78;95025.34;5121136;27;20034;-71
2022/04/04 10:11:10;;;;;;;12.13;9.30;;;;;;;7.68;42.90;95013.56;5111677;27;20562;-71
2022/04/04 10:13:35;;;;;;;12.80;10.20;;;;;;;7.76;42.58;95017.28;5107320;27;20493;-71
2022/04/04 10:16:01;;;;;;;11.65;9.07;;;;;;;7.90;43.11;95005.97;5122960;27;20044;-71
2022/04/04 10:18:26;;;;;;;12.60;9.68;;;;;;;8.08;43.89;95006.47;5109397;27;20646;-71
2022/04/04 10:20:55;;;;;;;12.55;9.18;;;;;;;8.00;43.18;94991.47;5127739;27;20027;-71
2022/04/04 10:23:22;;;;;;;12.77;9.27;;;;;;;8.12;43.66;94991.56;5118933;27;20023;-71
2022/04/04 10:25:51;;;;;;;12.40;9.65;;;;;;;8.16;43.19;94991.25;5107500;28;20066;-71
2022/04/04 10:28:27;;;;;;;12.98;9.70;;;;;;;8.25;42.50;94988.00;5127548;27;20035;-71
2022/04/04 10:30:52;;;;;;;13.40;9.07;;;;;;;8.30;42.35;94979.88;5125600;27;20042;-71
2022/04/04 10:33:19;;;;;;;15.55;9.90;;;;;;;8.39;42.96;94976.69;5132046;27;20099;-71
2022/04/04 10:36:01;;;;;;;13.60;9.27;;;;;;;8.53;42.37;94980.06;5126411;27;20023;-71
2022/04/04 10:38:46;;;;;;;11.65;9.27;;;;;;;8.68;42.29;94974.59;5112225;27;20038;-71
2022/04/04 10:41:18;;;;;;;14.88;9.20;;;;;;;8.58;41.76;94975.34;5094395;27;20038;-71
2022/04/04 10:43:48;;;;;;;13.35;10.02;;;;;;;8.34;41.20;94981.34;5110268;27;20074;-71
2022/04/04 10:46:15;;;;;;;14.50;9.60;;;;;;;8.29;41.55;94973.88;5112073;27;20031;-71
2022/04/04 10:48:41;;;;;;;11.68;9.30;;;;;;;8.41;42.33;94973.97;5130747;27;20038;-70
2022/04/04 10:51:18;;;;;;;12.30;8.73;;;;;;;8.42;41.35;94962.72;5128703;27;20031;-70
2022/04/04 10:53:51;;;;;;;13.38;9.10;;;;;;;8.39;42.29;94961.16;5107092;27;20027;-70
2022/04/04 10:56:40;;;;;;;12.90;8.68;;;;;;;8.39;41.47;94965.53;5112129;27;20062;-69
2022/04/04 10:59:15;;;;;;;10.95;8.73;;;;;;;8.24;41.43;94962.22;5123457;27;20508;-70
2022/04/04 11:01:41;;;;;;;11.95;9.30;;;;;;;8.10;43.32;94958.00;5127931;27;20062;-70
2022/04/04 11:04:07;;;;;;;12.30;9.73;;;;;;;8.27;43.67;94959.41;5092096;28;20092;-72
2022/04/04 11:09:32;;;;;;;12.32;9.48;;;;;;;8.43;41.78;94947.03;5121411;28;20494;-70
2022/04/04 11:12:00;;;;;;;15.35;9.88;;;;;;;8.52;42.83;94952.50;5110993;28;20030;-70
2022/04/04 11:14:31;;;;;;;13.88;9.63;;;;;;;8.66;41.57;94948.00;5129152;27;20106;-70
2022/04/04 11:17:08;;;;;;;14.90;9.35;;;;;;;8.78;42.59;94948.84;5129521;27;20064;-69
2022/04/04 11:19:47;;;;;;;18.60;11.55;;;;;;;8.88;42.67;94951.56;5126818;27;20035;-70
2022/04/04 11:22:26;;;;;;;11.85;9.13;;;;;;;9.04;41.15;94951.28;5112051;28;20038;-70
2022/04/04 11:25:03;;;;;;;13.05;9.35;;;;;;;9.02;42.17;94950.53;5108004;28;20059;-70
2022/04/04 11:27:29;;;;;;;12.60;9.73;;;;;;;8.99;42.98;94937.81;5113865;27;20027;-71
2022/04/04 11:29:54;;;;;;;15.48;9.77;;;;;;;9.10;41.93;94943.03;5120448;27;20060;-70
2022/04/04 11:32:31;;;;;;;10.90;8.23;;;;;;;9.02;40.91;94937.59;5130776;27;20080;-70
2022/04/04 11:35:01;;;;;;;11.10;8.82;;;;;;;9.08;41.18;94934.53;5130768;27;20042;-70
2022/04/04 11:37:27;;;;;;;13.20;8.63;;;;;;;9.24;40.46;94924.66;5131967;27;20188;-70